Time;durP1;ratioP1;P1;durP2;ratioP2;P2;SDS_P1;SDS_P2;PMS_P1;PMS_P2;Temp;Humidity;BMP_temperature;BMP_pressure;BME280_temperature;BME280_humidity;BME280_pressure;Samples;Min_cycle;Max_cycle;Signal;HPM_P1;HPM_P2
2023/11/09 00:00:26;;;;;;;1999.90;999.90;;;10.90;99.90;;;;;;5050935;28;20408;-70
2023/11/09 00:02:51;;;;;;;1999.90;999.90;;;10.90;99.90;;;;;;5053518;28;20074;-70
2023/11/09 00:05:17;;;;;;;1999.90;999.90;;;10.90;99.90;;;;;;5052349;28;20564;-70
2023/11/09 00:07:43;;;;;;;1999.90;999.90;;;10.90;99.90;;;;;;5051089;28;20367;-71
2023/11/09 00:10:10;;;;;;;1999.90;999.90;;;10.80;99.90;;;;;;5045088;28;20029;-71
2023/11/09 00:12:36;;;;;;;1999.90;999.90;;;10.80;99.90;;;;;;5046697;28;20033;-71
2023/11/09 00:15:03;;;;;;;1999.90;999.90;;;10.90;99.90;;;;;;5044931;28;20029;-71
2023/11/09 00:17:29;;;;;;;1999.90;999.90;;;10.90;99.90;;;;;;5048150;28;20542;-71
2023/11/09 00:19:54;;;;;;;1999.90;999.90;;;10.90;99.90;;;;;;5051885;28;20051;-71
2023/11/09 00:22:20;;;;;;;1999.90;999.90;;;10.90;99.90;;;;;;5046404;28;20029;-71
2023/11/09 00:24:47;;;;;;;1999.90;999.90;;;10.90;99.90;;;;;;5050647;28;20032;-70
2023/11/09 00:27:22;;;;;;;1999.90;999.90;;;10.90;99.90;;;;;;5045793;28;20431;-70
2023/11/09 00:29:47;;;;;;;1999.90;999.90;;;10.90;99.90;;;;;;5050383;28;20071;-71
2023/11/09 00:32:17;;;;;;;1999.90;999.90;;;10.90;99.90;;;;;;5048905;28;20495;-71
2023/11/09 00:34:46;;;;;;;1999.90;999.90;;;10.90;99.90;;;;;;5045337;28;20385;-69
2023/11/09 00:37:11;;;;;;;1999.90;999.90;;;10.90;99.90;;;;;;5048103;28;20032;-70
2023/11/09 00:39:38;;;;;;;1999.90;999.90;;;10.90;99.90;;;;;;5051257;28;20033;-70
2023/11/09 00:42:07;;;;;;;1999.90;999.90;;;10.90;99.90;;;;;;5048625;28;20064;-70
2023/11/09 00:44:33;;;;;;;1999.90;999.90;;;11.00;99.90;;;;;;5047642;28;20029;-71
2023/11/09 00:47:00;;;;;;;1999.90;999.90;;;10.90;99.90;;;;;;5043006;28;20309;-69
2023/11/09 00:49:26;;;;;;;1999.90;999.90;;;11.00;99.90;;;;;;5048512;28;20412;-83
2023/11/09 00:51:52;;;;;;;1999.90;999.90;;;10.90;99.90;;;;;;5048476;28;20471;-71
2023/11/09 00:54:18;;;;;;;1999.90;999.90;;;10.90;99.90;;;;;;5049463;28;20063;-70
2023/11/09 00:56:44;;;;;;;1999.90;999.90;;;10.90;99.90;;;;;;5049550;28;20053;-69
2023/11/09 00:59:09;;;;;;;1999.90;999.90;;;11.00;99.90;;;;;;5050286;28;20017;-70
2023/11/09 01:01:36;;;;;;;1999.90;999.90;;;10.90;99.90;;;;;;5045639;28;20419;-70
2023/11/09 01:04:01;;;;;;;1999.90;999.90;;;10.90;99.90;;;;;;5048017;28;20078;-70
2023/11/09 01:06:27;;;;;;;1999.90;999.90;;;10.90;99.90;;;;;;5052362;28;20359;-70
2023/11/09 01:08:53;;;;;;;1999.90;999.90;;;10.90;99.90;;;;;;5049110;28;20033;-70
2023/11/09 01:11:23;;;;;;;1999.90;999.90;;;11.00;99.90;;;;;;5046207;28;20029;-69
2023/11/09 01:13:49;;;;;;;1999.90;999.90;;;11.00;99.90;;;;;;5048081;28;20581;-69
2023/11/09 01:16:14;;;;;;;1999.90;999.90;;;11.00;99.90;;;;;;5044324;28;20028;-69
2023/11/09 01:18:41;;;;;;;1999.90;999.90;;;10.90;99.90;;;;;;5050579;28;20021;-70
2023/11/09 01:21:07;;;;;;;1999.90;999.90;;;10.90;99.90;;;;;;5053347;28;20086;-70
2023/11/09 01:23:32;;;;;;;1999.90;999.90;;;10.90;99.90;;;;;;5046600;28;20033;-70
2023/11/09 01:25:58;;;;;;;1999.90;999.90;;;11.00;99.90;;;;;;5041588;28;20048;-70
2023/11/09 01:28:24;;;;;;;1999.90;999.90;;;10.90;99.90;;;;;;5051146;28;20178;-70
2023/11/09 01:30:49;;;;;;;1999.90;999.90;;;10.90;99.90;;;;;;5048367;28;20029;-69
2023/11/09 01:33:15;;;;;;;1999.90;999.90;;;11.00;99.90;;;;;;5052789;28;20029;-69
2023/11/09 01:35:41;;;;;;;1999.90;999.90;;;11.00;99.90;;;;;;5048972;28;20089;-69
2023/11/09 01:38:07;;;;;;;1999.90;999.90;;;11.00;99.90;;;;;;5046203;28;20020;-69
2023/11/09 01:40:34;;;;;;;1999.90;999.90;;;11.00;99.90;;;;;;5050013;28;20047;-70
2023/11/09 01:43:00;;;;;;;1999.90;999.90;;;11.00;99.90;;;;;;5039880;28;20103;-70
2023/11/09 01:45:27;;;;;;;1999.90;999.90;;;11.00;99.90;;;;;;5054241;28;20029;-69
2023/11/09 01:47:54;;;;;;;1999.90;999.90;;;11.00;99.90;;;;;;5048976;28;20040;-70
2023/11/09 01:50:20;;;;;;;1999.90;999.90;;;11.00;99.90;;;;;;5053813;28;20140;-71
2023/11/09 01:52:46;;;;;;;1999.90;999.90;;;11.00;99.90;;;;;;5048033;28;20031;-70
2023/11/09 01:55:13;;;;;;;1999.90;999.90;;;11.00;99.90;;;;;;5048442;28;20476;-70
2023/11/09 01:57:41;;;;;;;1999.90;999.90;;;11.00;99.90;;;;;;5052530;28;20025;-69
2023/11/09 02:00:10;;;;;;;1999.90;999.90;;;10.90;99.90;;;;;;5052510;28;20116;-69
2023/11/09 02:02:37;;;;;;;1999.90;999.90;;;11.00;99.90;;;;;;5051801;28;20021;-70
2023/11/09 02:05:03;;;;;;;1999.90;999.90;;;11.00;99.90;;;;;;5041062;28;20043;-70
2023/11/09 02:07:29;;;;;;;1999.90;999.90;;;10.90;99.90;;;;;;5052275;28;20056;-71
2023/11/09 02:09:55;;;;;;;1999.90;999.90;;;10.90;99.90;;;;;;5054041;28;20450;-70
2023/11/09 02:12:22;;;;;;;1999.90;999.90;;;10.90;99.90;;;;;;5047570;28;20032;-70
2023/11/09 02:14:48;;;;;;;1999.90;999.90;;;10.90;99.90;;;;;;5053003;28;20033;-71
2023/11/09 02:17:14;;;;;;;1999.90;999.90;;;10.90;99.90;;;;;;5050045;28;20021;-70
2023/11/09 02:19:39;;;;;;;1999.90;999.90;;;10.90;99.90;;;;;;5045221;28;20029;-69
2023/11/09 02:22:06;;;;;;;1999.90;999.90;;;10.90;99.90;;;;;;5052029;28;20029;-70
2023/11/09 02:24:32;;;;;;;1999.90;999.90;;;10.90;99.90;;;;;;5052940;28;20026;-70
2023/11/09 02:27:01;;;;;;;1999.90;999.90;;;10.90;99.90;;;;;;5047665;28;20116;-69
2023/11/09 02:29:27;;;;;;;1999.90;999.90;;;10.90;99.90;;;;;;5050834;28;20021;-69
2023/11/09 02:31:53;;;;;;;1999.90;999.90;;;10.90;99.90;;;;;;5053027;28;20037;-69
2023/11/09 02:34:23;;;;;;;1999.90;999.90;;;10.90;99.90;;;;;;5049797;28;20593;-69
2023/11/09 02:36:51;;;;;;;1999.90;999.90;;;10.90;99.90;;;;;;5048082;28;20098;-69
2023/11/09 02:39:17;;;;;;;1999.90;999.90;;;10.80;99.90;;;;;;5053049;28;20138;-68
2023/11/09 02:41:42;;;;;;;1999.90;999.90;;;10.80;99.90;;;;;;5048680;28;20071;-69
2023/11/09 02:44:08;;;;;;;1999.90;999.90;;;10.70;99.90;;;;;;5047480;28;20721;-68
2023/11/09 02:46:34;;;;;;;1999.90;999.90;;;10.70;99.90;;;;;;5046337;28;20025;-69
2023/11/09 02:49:01;;;;;;;1999.90;999.90;;;10.70;99.90;;;;;;5051948;28;20028;-70
2023/11/09 02:51:27;;;;;;;1999.90;999.90;;;10.60;99.90;;;;;;5049876;28;20447;-68
2023/11/09 02:53:55;;;;;;;1999.90;999.90;;;10.60;99.90;;;;;;5044844;28;20036;-68
2023/11/09 02:56:21;;;;;;;1999.90;999.90;;;10.60;99.90;;;;;;5046945;28;20022;-69
2023/11/09 02:58:48;;;;;;;1999.90;999.90;;;10.60;99.90;;;;;;5050663;28;20029;-69
2023/11/09 03:01:13;;;;;;;;;;;10.60;99.90;;;;;;5046843;28;20031;-69
2023/11/09 03:03:39;;;;;;;1999.90;999.90;;;10.60;99.90;;;;;;5046211;28;19909;-69
2023/11/09 03:06:05;;;;;;;1999.90;999.90;;;10.50;99.90;;;;;;5047662;28;20074;-89
2023/11/09 03:08:31;;;;;;;1999.90;999.90;;;10.50;99.90;;;;;;5051764;28;20103;-69
2023/11/09 03:10:57;;;;;;;1999.90;999.90;;;10.50;99.90;;;;;;5051745;28;20654;-69
2023/11/09 03:13:23;;;;;;;1999.90;999.90;;;10.50;99.90;;;;;;5052543;28;20040;-69
2023/11/09 03:15:49;;;;;;;1999.90;999.90;;;10.50;99.90;;;;;;5046291;28;20369;-69
2023/11/09 03:18:15;;;;;;;1999.90;999.90;;;10.50;99.90;;;;;;5045647;28;20025;-69
2023/11/09 03:20:41;;;;;;;1999.90;999.90;;;10.40;99.90;;;;;;5048291;28;20091;-69
2023/11/09 03:23:10;;;;;;;1999.90;999.90;;;10.50;99.90;;;;;;5052629;28;20052;-85
2023/11/09 03:25:38;;;;;;;1999.90;999.90;;;10.50;99.90;;;;;;5050098;28;20036;-69
2023/11/09 03:28:05;;;;;;;1999.90;999.90;;;10.40;99.90;;;;;;5046363;28;20503;-69
2023/11/09 03:30:30;;;;;;;1999.90;999.90;;;10.40;99.90;;;;;;5043209;28;20355;-70
2023/11/09 03:32:57;;;;;;;1999.90;999.90;;;10.40;99.90;;;;;;5050714;28;20033;-69
2023/11/09 03:35:23;;;;;;;1999.90;999.90;;;10.40;99.90;;;;;;5052497;28;20025;-69
2023/11/09 03:37:49;;;;;;;1999.90;999.90;;;10.40;99.90;;;;;;5051514;28;20082;-73
2023/11/09 03:40:15;;;;;;;1999.90;999.90;;;10.40;99.90;;;;;;5049688;28;20026;-69
2023/11/09 03:42:41;;;;;;;1999.90;999.90;;;10.40;99.90;;;;;;5051455;28;20028;-69
2023/11/09 03:45:08;;;;;;;1999.90;999.90;;;10.30;99.90;;;;;;5045453;28;20033;-69
2023/11/09 03:47:34;;;;;;;1999.90;999.90;;;10.40;99.90;;;;;;5046334;28;20021;-69
2023/11/09 03:50:00;;;;;;;1999.90;999.90;;;10.40;99.90;;;;;;5049991;28;20017;-70
2023/11/09 03:52:27;;;;;;;1999.90;999.90;;;10.40;99.90;;;;;;5051037;28;20353;-69
2023/11/09 03:54:55;;;;;;;1999.90;999.90;;;10.40;99.90;;;;;;5051076;28;20021;-69
2023/11/09 03:57:21;;;;;;;1999.90;999.90;;;10.40;99.90;;;;;;5051473;28;20047;-69
2023/11/09 03:59:47;;;;;;;1999.90;999.90;;;10.40;99.90;;;;;;5043879;28;20577;-69
2023/11/09 04:02:13;;;;;;;1999.90;999.90;;;10.40;99.90;;;;;;5042878;28;20104;-69
2023/11/09 04:04:39;;;;;;;1999.90;999.90;;;10.40;99.90;;;;;;5053794;28;20090;-70
2023/11/09 04:07:05;;;;;;;1999.90;999.90;;;10.40;99.90;;;;;;5054202;28;20025;-69
2023/11/09 04:09:31;;;;;;;1999.90;999.90;;;10.40;99.90;;;;;;5053977;28;20024;-69
2023/11/09 04:11:56;;;;;;;1999.90;999.90;;;10.30;99.90;;;;;;5053719;28;20035;-69
2023/11/09 04:14:22;;;;;;;1999.90;999.90;;;10.40;99.90;;;;;;5054900;28;20293;-69
2023/11/09 04:16:48;;;;;;;1999.90;999.90;;;10.40;99.90;;;;;;5054675;28;20049;-69
2023/11/09 04:19:16;;;;;;;1999.90;999.90;;;10.30;99.90;;;;;;5053582;28;20633;-69
2023/11/09 04:21:42;;;;;;;1999.90;999.90;;;10.30;99.90;;;;;;5054290;28;20043;-86
2023/11/09 04:24:08;;;;;;;1999.90;999.90;;;10.30;99.90;;;;;;5051715;28;20319;-70
2023/11/09 04:26:34;;;;;;;1999.90;999.90;;;10.30;99.90;;;;;;5049487;28;20032;-69
2023/11/09 04:29:01;;;;;;;1999.90;999.90;;;10.20;99.90;;;;;;5046279;28;20025;-69
2023/11/09 04:31:26;;;;;;;;;;;10.30;99.90;;;;;;5054723;28;20082;-69
2023/11/09 04:33:58;;;;;;;1999.90;999.90;;;10.30;99.90;;;;;;5054101;28;20367;-77
2023/11/09 04:36:24;;;;;;;1999.90;999.90;;;10.30;99.90;;;;;;5048581;28;20028;-69
2023/11/09 04:38:52;;;;;;;1999.90;999.90;;;10.20;99.90;;;;;;5053572;28;20028;-70
2023/11/09 04:41:17;;;;;;;1999.90;999.90;;;10.20;99.90;;;;;;5054484;28;20091;-69
2023/11/09 04:43:44;;;;;;;1999.90;999.90;;;10.20;99.90;;;;;;5050008;28;20107;-70
2023/11/09 04:46:11;;;;;;;;;;;10.20;99.90;;;;;;5054609;28;20035;-69
2023/11/09 04:48:44;;;;;;;;;;;10.20;99.90;;;;;;5054349;28;19919;-69
2023/11/09 04:51:20;;;;;;;1999.90;999.90;;;10.20;99.90;;;;;;5051848;28;19952;-69
2023/11/09 04:53:48;;;;;;;1999.90;999.90;;;10.20;99.90;;;;;;5047038;28;20040;-85
2023/11/09 04:56:30;;;;;;;1999.90;999.90;;;10.20;99.90;;;;;;5053039;28;20032;-69
2023/11/09 04:59:02;;;;;;;1999.90;999.90;;;10.20;99.90;;;;;;5052022;28;20104;-69
2023/11/09 05:06:59;;;;;;;1999.90;999.90;;;10.10;99.90;;;;;;5049173;28;20110;-69
2023/11/09 05:09:27;;;;;;;1999.90;999.90;;;10.10;99.90;;;;;;5054509;28;20037;-69
2023/11/09 05:11:53;;;;;;;1999.90;999.90;;;10.00;99.90;;;;;;5053205;28;20040;-82
2023/11/09 05:14:20;;;;;;;1999.90;999.90;;;10.00;99.90;;;;;;5054111;28;20033;-70
2023/11/09 05:16:45;;;;;;;1999.90;999.90;;;10.00;99.90;;;;;;5054078;28;20040;-69
2023/11/09 05:19:15;;;;;;;1999.90;999.90;;;10.00;99.90;;;;;;5052721;28;20025;-69
2023/11/09 05:21:41;;;;;;;1999.90;999.90;;;9.90;99.90;;;;;;5048445;28;20033;-69
2023/11/09 05:24:07;;;;;;;1999.90;999.90;;;9.90;99.90;;;;;;5054765;28;20104;-69
2023/11/09 05:26:36;;;;;;;1999.90;999.90;;;9.80;99.90;;;;;;5054594;28;20033;-69
2023/11/09 05:29:04;;;;;;;1999.90;999.90;;;9.80;99.90;;;;;;5054745;28;20103;-69
2023/11/09 05:31:34;;;;;;;1999.90;999.90;;;9.80;99.90;;;;;;5051209;28;20036;-69
2023/11/09 05:34:00;;;;;;;1999.90;999.90;;;9.80;99.90;;;;;;5048080;28;20024;-70
2023/11/09 05:36:26;;;;;;;1999.90;999.90;;;9.80;99.90;;;;;;5054147;28;20036;-69
2023/11/09 05:38:52;;;;;;;1999.90;999.90;;;9.80;99.90;;;;;;5051284;28;20037;-69
2023/11/09 05:41:18;;;;;;;1999.90;999.90;;;9.80;99.90;;;;;;5049151;28;20110;-69
2023/11/09 05:43:44;;;;;;;1999.90;999.90;;;9.80;99.90;;;;;;5053625;28;20051;-69
2023/11/09 05:46:10;;;;;;;1999.90;999.90;;;9.80;99.90;;;;;;5049010;28;20276;-70
2023/11/09 05:48:36;;;;;;;1999.90;999.90;;;9.80;99.90;;;;;;5052627;28;20025;-69
2023/11/09 05:51:02;;;;;;;1999.90;999.90;;;9.80;99.90;;;;;;5048209;28;20698;-69
2023/11/09 05:53:27;;;;;;;1999.90;999.90;;;9.80;99.90;;;;;;5053602;28;20033;-69
2023/11/09 05:55:53;;;;;;;1999.90;999.90;;;9.80;99.90;;;;;;5051836;28;20082;-69
2023/11/09 05:58:19;;;;;;;1999.90;999.90;;;9.70;99.90;;;;;;5053206;28;20035;-68
2023/11/09 06:00:45;;;;;;;1999.90;999.90;;;9.80;99.90;;;;;;5049970;28;20032;-69
2023/11/09 06:03:11;;;;;;;1999.90;999.90;;;9.80;99.90;;;;;;5043729;28;20028;-85
2023/11/09 06:05:39;;;;;;;1999.90;999.90;;;9.80;99.90;;;;;;5046868;28;20037;-69
2023/11/09 06:08:08;;;;;;;1999.90;999.90;;;9.80;99.90;;;;;;5046215;28;20067;-69
2023/11/09 06:10:34;;;;;;;1999.90;999.90;;;9.80;99.90;;;;;;5047088;28;20029;-69
2023/11/09 06:12:59;;;;;;;1999.90;999.90;;;9.90;99.90;;;;;;5041392;28;20031;-70
2023/11/09 06:15:26;;;;;;;1999.90;999.90;;;9.90;99.90;;;;;;5047218;28;20716;-69
2023/11/09 06:17:52;;;;;;;1999.90;999.90;;;9.90;99.90;;;;;;5048644;28;20024;-68
2023/11/09 06:20:20;;;;;;;1999.90;999.90;;;9.80;99.90;;;;;;5048254;28;20104;-82
2023/11/09 06:22:45;;;;;;;1999.90;999.90;;;9.80;99.90;;;;;;5048153;28;20040;-69
2023/11/09 06:25:12;;;;;;;1999.90;999.90;;;9.90;99.90;;;;;;5045594;28;20039;-69
2023/11/09 06:27:38;;;;;;;;;;;9.90;99.90;;;;;;5045726;28;20036;-69
2023/11/09 06:30:07;;;;;;;1999.90;999.90;;;9.90;99.90;;;;;;5044705;28;19913;-69
2023/11/09 06:32:37;;;;;;;1999.90;999.90;;;9.90;99.90;;;;;;5040225;28;20057;-69
2023/11/09 06:35:05;;;;;;;1999.90;999.90;;;9.90;99.90;;;;;;5039344;28;20033;-69
2023/11/09 06:37:34;;;;;;;1999.90;999.90;;;9.90;99.90;;;;;;5045201;28;20020;-69
2023/11/09 06:40:03;;;;;;;1999.90;999.90;;;9.90;99.90;;;;;;5043517;28;20017;-69
2023/11/09 06:42:30;;;;;;;1999.90;999.90;;;9.90;99.90;;;;;;5043459;28;20375;-70
2023/11/09 06:44:55;;;;;;;1999.90;999.90;;;9.80;99.90;;;;;;5046757;28;20025;-69
2023/11/09 06:47:21;;;;;;;1999.90;999.90;;;9.80;99.90;;;;;;5043412;28;20335;-69
2023/11/09 06:49:47;;;;;;;1999.90;999.90;;;9.80;99.90;;;;;;5040354;28;20328;-69
2023/11/09 06:52:13;;;;;;;1999.90;999.90;;;9.70;99.90;;;;;;5046921;28;20041;-69
2023/11/09 06:54:40;;;;;;;1999.90;999.90;;;9.70;99.90;;;;;;5047558;28;20033;-86
2023/11/09 06:57:11;;;;;;;1999.90;999.90;;;9.70;99.90;;;;;;5044119;28;20048;-69
2023/11/09 06:59:37;;;;;;;1999.90;999.90;;;9.70;99.90;;;;;;5046635;28;20317;-69
2023/11/09 07:02:02;;;;;;;1999.90;999.90;;;9.70;99.90;;;;;;5050528;28;20033;-69
2023/11/09 07:04:28;;;;;;;1999.90;999.90;;;9.70;99.90;;;;;;5046449;28;20285;-69
2023/11/09 07:06:54;;;;;;;1999.90;999.90;;;9.60;99.90;;;;;;5049791;28;20320;-69
2023/11/09 07:09:20;;;;;;;1999.90;999.90;;;9.60;99.90;;;;;;5048535;28;20100;-68
2023/11/09 07:11:48;;;;;;;1999.90;999.90;;;9.60;99.90;;;;;;5051053;28;20112;-69
2023/11/09 07:14:15;;;;;;;1999.90;999.90;;;9.60;99.90;;;;;;5050102;28;20024;-69
2023/11/09 07:16:41;;;;;;;1999.90;999.90;;;9.60;99.90;;;;;;5047113;28;20025;-69
2023/11/09 07:19:07;;;;;;;1999.90;999.90;;;9.50;99.90;;;;;;5052123;28;20021;-70
2023/11/09 07:21:32;;;;;;;1999.90;999.90;;;9.50;99.90;;;;;;5039796;28;20033;-69
2023/11/09 07:24:04;;;;;;;1999.90;999.90;;;9.40;99.90;;;;;;5050535;28;20309;-81
2023/11/09 07:26:31;;;;;;;1999.90;999.90;;;9.40;99.90;;;;;;5045840;28;20513;-69
2023/11/09 07:28:57;;;;;;;1999.90;999.90;;;9.40;99.90;;;;;;5046744;28;20017;-83
2023/11/09 07:31:23;;;;;;;1999.90;999.90;;;9.40;99.90;;;;;;5047923;28;20125;-69
2023/11/09 07:33:50;;;;;;;1999.90;999.90;;;9.30;99.90;;;;;;5041252;28;20463;-69
2023/11/09 07:36:19;;;;;;;1999.90;999.90;;;9.30;99.90;;;;;;5043620;28;20017;-85
2023/11/09 07:38:44;;;;;;;1999.90;999.90;;;9.30;99.90;;;;;;5043542;28;20025;-68
2023/11/09 07:41:10;;;;;;;1999.90;999.90;;;9.30;99.90;;;;;;5046050;28;20025;-69
2023/11/09 07:43:36;;;;;;;1999.90;999.90;;;9.30;99.90;;;;;;5049286;28;20323;-69
2023/11/09 07:46:02;;;;;;;1999.90;999.90;;;9.20;99.90;;;;;;5053698;28;20098;-70
2023/11/09 07:48:28;;;;;;;1999.90;999.90;;;9.30;99.90;;;;;;5046048;28;20020;-69
2023/11/09 07:50:54;;;;;;;1999.90;999.90;;;9.30;99.90;;;;;;5046407;28;20055;-69
2023/11/09 07:53:21;;;;;;;1999.90;999.90;;;9.30;99.90;;;;;;5046214;28;20027;-69
2023/11/09 07:55:48;;;;;;;1999.90;999.90;;;9.40;99.90;;;;;;5046941;28;20032;-70
2023/11/09 07:58:15;;;;;;;1999.90;999.90;;;9.40;99.90;;;;;;5046616;28;20125;-69
2023/11/09 08:00:41;;;;;;;;;;;9.40;99.90;;;;;;5046870;28;20053;-69
2023/11/09 08:03:11;;;;;;;1999.90;999.90;;;9.50;99.90;;;;;;5047826;28;19974;-70
2023/11/09 08:05:41;;;;;;;1999.90;999.90;;;9.50;99.90;;;;;;5048187;28;20112;-69
2023/11/09 08:08:10;;;;;;;1999.90;999.90;;;9.50;99.90;;;;;;5048010;28;20029;-69
2023/11/09 08:10:40;;;;;;;1999.90;999.90;;;9.50;99.90;;;;;;5051156;28;20029;-70
2023/11/09 08:13:07;;;;;;;1999.90;999.90;;;9.60;99.90;;;;;;5052185;28;20024;-70
2023/11/09 08:15:36;;;;;;;1999.90;999.90;;;9.60;99.90;;;;;;5050213;28;20048;-69
2023/11/09 08:18:03;;;;;;;1999.90;999.90;;;9.70;99.90;;;;;;5045552;28;20301;-69
2023/11/09 08:20:29;;;;;;;1999.90;999.90;;;9.80;99.90;;;;;;5049135;28;20029;-69
2023/11/09 08:22:59;;;;;;;1999.90;999.90;;;9.80;99.90;;;;;;5051160;28;20029;-69
2023/11/09 08:25:27;;;;;;;1999.90;999.90;;;9.90;99.90;;;;;;5045451;28;20109;-80
2023/11/09 08:27:53;;;;;;;1999.90;999.90;;;10.00;99.90;;;;;;5045561;28;20049;-69
2023/11/09 08:30:21;;;;;;;1999.90;999.90;;;10.00;99.90;;;;;;5046323;28;20029;-69
2023/11/09 08:32:47;;;;;;;1999.90;999.90;;;10.00;99.90;;;;;;5047104;28;20040;-70
2023/11/09 08:35:17;;;;;;;1999.90;999.90;;;9.90;99.90;;;;;;5045914;28;20033;-70
2023/11/09 08:37:44;;;;;;;1999.90;999.90;;;9.90;99.90;;;;;;5048269;28;20266;-69
2023/11/09 08:40:17;;;;;;;1999.90;999.90;;;9.90;99.90;;;;;;5050700;28;20032;-69
2023/11/09 08:42:45;;;;;;;1999.90;999.90;;;9.80;99.90;;;;;;5041654;28;20336;-69
2023/11/09 08:45:12;;;;;;;1999.90;999.90;;;9.90;99.90;;;;;;5038366;28;20071;-70
2023/11/09 08:47:38;;;;;;;;;;;9.90;99.90;;;;;;5040747;28;20033;-69
2023/11/09 08:50:05;;;;;;;1999.90;999.90;;;9.90;99.90;;;;;;5044408;28;19913;-69
2023/11/09 08:52:32;;;;;;;1999.90;999.90;;;9.90;99.90;;;;;;5046046;28;21572;-69
2023/11/09 08:54:58;;;;;;;1999.90;999.90;;;10.00;99.90;;;;;;5044401;28;20327;-69
2023/11/09 08:57:24;;;;;;;1999.90;999.90;;;10.00;99.90;;;;;;5041170;28;20032;-69
2023/11/09 08:59:50;;;;;;;1999.90;999.90;;;10.00;99.90;;;;;;5039366;28;20040;-69
2023/11/09 09:02:17;;;;;;;1999.90;999.90;;;10.00;99.90;;;;;;5042700;28;20029;-69
2023/11/09 09:04:44;;;;;;;1999.90;999.90;;;10.10;99.90;;;;;;5044453;28;20037;-69
2023/11/09 09:07:10;;;;;;;1999.90;999.90;;;10.10;99.90;;;;;;5048022;28;20037;-69
2023/11/09 09:09:42;;;;;;;1999.90;999.90;;;10.10;99.90;;;;;;5042929;28;20036;-69
2023/11/09 09:12:08;;;;;;;1999.90;999.90;;;10.20;99.90;;;;;;5044064;28;20035;-69
2023/11/09 09:14:34;;;;;;;1999.90;999.90;;;10.20;99.90;;;;;;5042675;28;20099;-80
2023/11/09 09:17:05;;;;;;;1999.90;999.90;;;10.20;99.90;;;;;;5038476;28;20267;-70
2023/11/09 09:19:31;;;;;;;1999.90;999.90;;;10.30;99.90;;;;;;5036885;28;20044;-69
2023/11/09 09:21:57;;;;;;;1999.90;999.90;;;10.40;99.90;;;;;;5043546;28;20060;-79
2023/11/09 09:24:23;;;;;;;1999.90;999.90;;;10.50;99.90;;;;;;5050775;28;20060;-69
2023/11/09 09:26:49;;;;;;;1999.90;999.90;;;10.50;99.90;;;;;;5042443;28;20336;-81
2023/11/09 09:29:15;;;;;;;1999.90;999.90;;;10.60;99.90;;;;;;5043900;28;20036;-68
2023/11/09 09:31:40;;;;;;;1999.90;999.90;;;10.60;99.90;;;;;;5054996;28;20308;-79
2023/11/09 09:34:08;;;;;;;1999.90;999.90;;;10.60;99.90;;;;;;5051077;28;20031;-69
2023/11/09 09:36:36;;;;;;;1999.90;999.90;;;10.60;99.90;;;;;;5048787;28;20088;-69
2023/11/09 09:39:03;;;;;;;1999.90;999.90;;;10.60;99.90;;;;;;5046712;28;20029;-69
2023/11/09 09:41:42;;;;;;;1999.90;999.90;;;10.60;99.90;;;;;;5042903;28;20030;-69
2023/11/09 09:44:12;;;;;;;1999.90;999.90;;;10.60;99.90;;;;;;5043561;28;20037;-80
2023/11/09 09:46:39;;;;;;;1999.90;999.90;;;10.70;99.90;;;;;;5050812;28;20087;-69
2023/11/09 09:49:08;;;;;;;1999.90;999.90;;;10.70;99.90;;;;;;5047289;28;20025;-69
2023/11/09 09:51:37;;;;;;;1999.90;999.90;;;10.80;99.90;;;;;;5044061;28;20428;-69
2023/11/09 09:54:08;;;;;;;1999.90;999.90;;;10.90;99.90;;;;;;5042527;28;20029;-70
2023/11/09 09:56:38;;;;;;;1999.90;999.90;;;10.90;99.90;;;;;;5042001;28;20025;-70
2023/11/09 09:59:09;;;;;;;1999.90;999.90;;;10.90;99.90;;;;;;5046354;28;20415;-70
2023/11/09 10:01:43;;;;;;;1999.90;999.90;;;10.90;99.90;;;;;;5043480;28;20527;-78
2023/11/09 10:04:11;;;;;;;1999.90;999.90;;;11.00;99.90;;;;;;5047801;28;20039;-69
2023/11/09 10:06:40;;;;;;;1999.90;999.90;;;11.00;99.90;;;;;;5047846;28;20025;-70
2023/11/09 10:09:07;;;;;;;1999.90;999.90;;;11.00;99.90;;;;;;5046106;28;20021;-78
2023/11/09 10:11:34;;;;;;;1999.90;999.90;;;11.00;99.90;;;;;;5047658;28;20029;-69
2023/11/09 10:14:03;;;;;;;1999.90;999.90;;;11.10;99.90;;;;;;5044222;28;20324;-69
2023/11/09 10:16:32;;;;;;;1999.90;999.90;;;11.10;99.90;;;;;;5048081;28;20458;-69
2023/11/09 10:19:02;;;;;;;1999.90;999.90;;;11.20;99.90;;;;;;5050909;28;20029;-69
2023/11/09 10:21:30;;;;;;;1999.90;999.90;;;11.30;99.90;;;;;;5045566;28;20502;-70
2023/11/09 10:23:58;;;;;;;1999.90;999.90;;;11.30;99.90;;;;;;5045755;28;20032;-69
2023/11/09 10:26:41;;;;;;;1999.90;999.90;;;11.30;99.90;;;;;;5045416;28;20029;-77
2023/11/09 10:29:13;;;;;;;1999.90;999.90;;;11.40;99.90;;;;;;5052195;28;20127;-69
2023/11/09 10:31:44;;;;;;;1999.90;999.90;;;11.30;99.90;;;;;;5044761;28;20068;-69
2023/11/09 10:34:15;;;;;;;1999.90;999.90;;;11.40;99.90;;;;;;5047447;28;20029;-69
2023/11/09 10:36:44;;;;;;;1999.90;999.90;;;11.50;99.90;;;;;;5046785;28;20063;-70
2023/11/09 10:39:16;;;;;;;1999.90;999.90;;;11.50;99.90;;;;;;5051383;28;20059;-69
2023/11/09 10:41:52;;;;;;;1999.90;999.90;;;11.50;99.90;;;;;;5047674;28;20033;-70
2023/11/09 10:44:23;;;;;;;1999.90;999.90;;;11.50;99.90;;;;;;5051315;28;20127;-79
2023/11/09 10:46:54;;;;;;;1999.90;999.90;;;11.40;99.90;;;;;;5053793;28;20353;-69
2023/11/09 10:49:30;;;;;;;1999.90;999.90;;;11.40;99.90;;;;;;5051901;28;20067;-70
2023/11/09 10:51:59;;;;;;;1999.90;999.90;;;11.50;99.90;;;;;;5051938;28;20120;-70
2023/11/09 10:54:29;;;;;;;1999.90;999.90;;;11.50;99.90;;;;;;5051643;28;20451;-69
2023/11/09 10:56:55;;;;;;;1999.90;999.90;;;11.60;99.90;;;;;;5055531;28;20112;-70
2023/11/09 10:59:25;;;;;;;1999.90;999.90;;;11.60;99.90;;;;;;5054641;28;20032;-69
2023/11/09 11:02:08;;;;;;;1999.90;999.90;;;11.60;99.90;;;;;;5046934;28;20033;-69
2023/11/09 11:04:36;;;;;;;1999.90;999.90;;;11.60;99.90;;;;;;5041451;28;20039;-75
2023/11/09 11:07:05;;;;;;;1999.90;999.90;;;11.60;99.90;;;;;;5042599;28;20034;-69
2023/11/09 11:09:37;;;;;;;1999.90;999.90;;;11.60;99.90;;;;;;5049259;28;20708;-69
2023/11/09 11:12:07;;;;;;;1999.90;999.90;;;11.60;99.90;;;;;;5042642;28;20337;-77
2023/11/09 11:14:36;;;;;;;1999.90;999.90;;;11.60;99.90;;;;;;5048867;28;20119;-69
2023/11/09 11:17:31;;;;;;;1999.90;999.90;;;11.60;99.90;;;;;;5042524;28;20051;-70
2023/11/09 11:20:26;;;;;;;1999.90;999.90;;;11.60;99.90;;;;;;5049097;28;20024;-68
2023/11/09 11:23:09;;;;;;;1999.90;999.90;;;11.70;99.90;;;;;;5045606;28;20438;-69
2023/11/09 11:25:45;;;;;;;1999.90;999.90;;;11.60;99.90;;;;;;5052171;28;20048;-68
2023/11/09 11:28:11;;;;;;;1999.90;999.90;;;11.60;99.90;;;;;;5048831;28;20316;-69
2023/11/09 11:30:40;;;;;;;1999.90;999.90;;;11.60;99.90;;;;;;5041370;28;20029;-80
2023/11/09 11:33:12;;;;;;;1999.90;999.90;;;11.60;99.90;;;;;;5043214;28;20104;-68
2023/11/09 11:35:43;;;;;;;1999.90;999.90;;;11.60;99.90;;;;;;5042527;28;20029;-69
2023/11/09 11:38:19;;;;;;;1999.90;999.90;;;11.70;99.90;;;;;;5035968;28;20021;-68
2023/11/09 11:40:46;;;;;;;1999.90;999.90;;;11.70;99.90;;;;;;5048703;28;20127;-69
2023/11/09 11:43:15;;;;;;;1999.90;999.90;;;11.70;99.90;;;;;;5047934;28;20374;-68
2023/11/09 11:45:41;;;;;;;1999.90;999.90;;;11.70;99.90;;;;;;5053043;28;20419;-69
2023/11/09 11:48:27;;;;;;;1999.90;999.90;;;11.60;99.90;;;;;;5044029;28;20112;-68
2023/11/09 11:50:59;;;;;;;1999.90;999.90;;;11.60;99.90;;;;;;5051867;28;20072;-68
2023/11/09 11:53:31;;;;;;;1999.90;999.90;;;11.60;99.90;;;;;;5043632;28;20021;-69
2023/11/09 11:56:05;;;;;;;1999.90;999.90;;;11.50;99.90;;;;;;5045899;28;20409;-76
2023/11/09 11:59:00;;;;;;;1999.90;999.90;;;11.50;99.90;;;;;;5045982;28;20037;-69
2023/11/09 12:01:28;;;;;;;1999.90;999.90;;;11.40;99.90;;;;;;5049083;28;20443;-68
2023/11/09 12:03:58;;;;;;;1999.90;999.90;;;11.30;99.90;;;;;;5038570;28;20613;-75
2023/11/09 12:06:25;;;;;;;1999.90;999.90;;;11.20;99.90;;;;;;5046267;28;20052;-69
2023/11/09 12:08:55;;;;;;;1999.90;999.90;;;11.20;99.90;;;;;;5049631;28;20332;-69
2023/11/09 12:11:25;;;;;;;1999.90;999.90;;;11.20;99.90;;;;;;5054941;28;20028;-68